Share

Beaver, UT

Milford Municipal (KMLF) Elev 5039 ft | 38.43 °N, 113.01 °W | Change Station

Current weather conditions updated 12 minutes ago

Clear
Clear
72 °F
Feels Like 72 °F
N
15
Wind Variable Wind from South
Gusts 23 mph
Sunrise 6:52 AM
Sunset 8:09 PM
Moon Waning Gibbous

Today is forecast to be Much Warmer than yesterday.

Pressure 29.87 in
Visibility 10.0 miles
Clouds Clear
Dew Point 22 °F
Humidity 15%
Rainfall 0.00 in
Snow Depth 26 in , 53 in
UV 10 out of 16
Pollen 9.40 out of 12
Air Quality Not available.
Flu Activity Local Activity
METAR KMLF 172052Z AUTO 17013G20KT 10SM CLR 22/M06 A2997 RMK AO2 WSHFT 2036 SLP114 T02221056 56021

More Conditions Fewer Conditions

Pressure 29.87 in
Visibility 10.0 miles
Clouds Clear
Dew Point 22 °F
Humidity 15%
Rainfall 0.00 in
Snow Depth 26 in , 53 in
UV 10 out of 16
Pollen 9.40 out of 12
Air Quality Not available.
Flu Activity Local Activity
METAR KMLF 172052Z AUTO 17013G20KT 10SM CLR 22/M06 A2997 RMK AO2 WSHFT 2036 SLP114 T02221056 56021

More Conditions Fewer Conditions

10-Day Forecast

Almanac

Astronomy

Apr. 17, 2014 Rise Set
Actual Time 6:52 AM MDT 8:09 PM MDT
Civil Twilight 6:24 AM MDT 8:36 PM MDT
Nautical Twilight 5:51 AM MDT 9:09 PM MDT
Astronomical Twilight 5:17 AM MDT 9:44 PM MDT
Moon 10:57 PM MDT 8:28 AM MDT
Length of Visible Light 14h 11m
Length of Day
13h 16m
Tomorrow will be 2m 21s longer.
Waning Gibbous, 92% of the Moon is Illuminated
Today
Waning Gibbous
Apr 22
Last Quarter
Apr 29
New
May 6
First Quarter
May 14
Full

Today's Extremes

State Highs State Lows

Community

  • Morning Light
    Morning Light
  • New Day
    New Day
  • Lake Michigan Sunrise
    Lake Michigan Sunrise
  • sunset from izmir, narlıdere
    sunset from izmir, narlıdere
  • oregon cherry
    oregon cherry

WunderPhotos

Upload Photos

1,702,123 photos uploaded!

Nearby

Snow Depth

Station Depth Elevation
Merchant Valley 26 in 8750 ft
Big Flat 53 in 10290 ft
Kimberly Mine 22 in 9300 ft
Castle Valley 11 in 9580 ft
Box Creek 4 in 9800 ft

Coastal Water Temperatures

Place Temperature
No Stations Reporting

Earthquake Activity

City Distance Mag. Time & Date
No recent earthquake activity has been reported nearby.
Minimum magnitude displayed is 2.5.

Nearby Weather Stations

Station Location Temp. Dew Point Humidity Wind Precip. Elev Updated Type
MesoWest MURDOC , Milford, UT 69 °F - - North  at  - 0.00 in / hr 4958 ft 1:25 PM MDT MADIS
MesoWest UPTON , Milford, UT 69 °F - - North  at  - 0.00 in / hr 5018 ft 2:00 PM MDT MADIS
RAWS FISHLAKE D3 PT #3 UT, Junction, UT 55 °F 21 °F 26% WSW  at  6 mph 0.00 in / hr 8671 ft 1:58 PM MDT MADIS

Show More Stations Show Fewer Stations

What do you think?

We're not finished. Please let us know what you like, what you don't like, and what you are still missing.